UKBB/KBP METAR and TAF weather

Enter ICAO airport designator
Station Type Date Time Source
UKBB METAR 2018/12/15 05:30 UTC NOAA

UKBB 150530Z 01003MPS 9000 OVC005 M02/M02 Q1028 R88/521045 NOSIG


Station Type Date Time Source
UKBB Decoded METAR 2018/12/15 05:30 UTC NOAA

Boryspil, Ukraine (UKBB) 50-20N 030-58E 122M
Dec 15, 2018 - 12:30 AM EST / 2018.12.15 0530 UTC
Wind: from the N (010 degrees) at 7 MPH (6 KT):0
Visibility: 5 mile(s):0
Sky conditions: overcast
Temperature: 28 F (-2 C)
Windchill: 21 F (-6 C):1
Dew Point: 28 F (-2 C)
Relative Humidity: 100%
Pressure (altimeter): 30.36 in. Hg (1028 hPa)
ob: UKBB 150530Z 01003MPS 9000 OVC005 M02/M02 Q1028 R88/521045 NOSIG
cycle: 5

Station Type Date Time Source
UKBB TAF 2018/12/15 06:25 UTC NOAA

TAF UKBB 150500Z 1506/1606 02003G08MPS 5000 BR OVC005 TXM02/1512Z TNM08/1605Z
TEMPO 1506/1509 2100 -SHSN BR BKN003 SCT012CB
BECMG 1509/1511 9999 NSW BKN010
TEMPO 1511/1516 05004G09MPS 3000 BR BKN007
BECMG 1516/1518 08003G08MPS


Example: see airport list